Sewalls Point, Florida
Current Conditions -  °F | °C
As of 5:15 AM on Friday 24 Oct 2014 (Local Time) from KSUA Reporting Station
Overcast Overcast  
Wind Chill: 73°   Ceiling: 3900
Heat Index: 73°   Visibility: 10mi
Dew Point: 63°   Wind: 16mph
Humidity: 69%   Direction: 50°NE
Pressure: 29.9"   Gusts: NA
Location:  27.1868°N, 80.2201°W
Report Text: KSUA 240915Z AUTO 05014KT 10SM OVC039 23/17 A2990 RMK AO2
Loading
Personal Weather Stations






























Interactive Weather Map
Tropical Storm Tracking
New forecast layout! Learn more

10-Day Weather Forecast

Advertisements
Track Severe Weather on mobile